createdAt,value
2023-05-04T00:01:06.292Z,50.71
2023-05-04T00:03:32.999Z,50.50
2023-05-04T00:05:59.808Z,51.47
2023-05-04T00:08:26.378Z,53.11
2023-05-04T00:10:53.286Z,54.67
2023-05-04T00:13:20.648Z,55.73
2023-05-04T00:15:47.443Z,56.36
2023-05-04T00:18:14.048Z,56.79
2023-05-04T00:20:40.623Z,55.33
2023-05-04T00:23:07.488Z,55.72
2023-05-04T00:25:34.236Z,55.75
2023-05-04T00:28:01.073Z,55.40
2023-05-04T00:30:27.545Z,55.74
2023-05-04T00:32:54.202Z,54.92
2023-05-04T00:35:21.744Z,55.55
2023-05-04T00:37:49.214Z,54.22
2023-05-04T00:40:15.768Z,53.55
2023-05-04T00:42:42.648Z,52.96
2023-05-04T00:45:09.523Z,52.93
2023-05-04T00:47:36.030Z,53.62
2023-05-04T00:50:03.040Z,53.37
2023-05-04T00:52:29.967Z,53.07
2023-05-04T00:54:56.801Z,52.68
2023-05-04T00:57:23.356Z,53.07
2023-05-04T00:59:49.898Z,53.29
2023-05-04T01:05:26.753Z,53.29
2023-05-04T01:07:53.328Z,51.58
2023-05-04T01:10:19.895Z,51.69
2023-05-04T01:12:47.656Z,50.69
2023-05-04T01:15:14.284Z,49.79
2023-05-04T01:17:41.871Z,49.17
2023-05-04T01:20:09.270Z,48.65
2023-05-04T01:22:35.858Z,48.53
2023-05-04T01:25:02.791Z,48.78
2023-05-04T01:27:29.719Z,48.65
2023-05-04T01:29:56.279Z,48.42
2023-05-04T01:32:24.576Z,48.86
2023-05-04T01:34:51.126Z,48.60
2023-05-04T01:37:17.653Z,49.15
2023-05-04T01:39:44.514Z,49.59
2023-05-04T01:42:11.298Z,50.71
2023-05-04T01:44:39.138Z,51.72
2023-05-04T01:47:05.757Z,51.94
2023-05-04T01:49:32.627Z,52.23
2023-05-04T01:51:59.140Z,51.32
2023-05-04T01:54:25.994Z,50.63
2023-05-04T01:56:52.604Z,51.18
2023-05-04T01:59:19.109Z,50.58
2023-05-04T02:01:45.771Z,50.05
2023-05-04T02:04:12.417Z,49.79
2023-05-04T02:06:39.045Z,49.30
2023-05-04T02:09:05.584Z,49.23
2023-05-04T02:11:32.462Z,49.49
2023-05-04T02:14:02.534Z,50.49
2023-05-04T02:16:29.576Z,50.52
2023-05-04T02:18:58.645Z,50.63
2023-05-04T02:21:25.133Z,50.64
2023-05-04T02:23:51.923Z,49.97
2023-05-04T02:26:25.747Z,50.67
2023-05-04T02:28:52.261Z,52.57
2023-05-04T02:31:18.885Z,53.51
2023-05-04T02:33:45.795Z,54.31
2023-05-04T02:36:12.380Z,56.22
2023-05-04T02:41:55.139Z,58.45
2023-05-04T02:44:21.653Z,58.40
2023-05-04T02:46:49.357Z,59.04
2023-05-04T02:49:16.226Z,58.51
2023-05-04T02:51:43.535Z,58.29
2023-05-04T02:54:10.133Z,58.73
2023-05-04T02:56:36.904Z,57.76
2023-05-04T02:59:03.453Z,58.08
2023-05-04T03:01:34.127Z,56.67
2023-05-04T03:04:01.316Z,56.50
2023-05-04T03:06:27.913Z,57.79
2023-05-04T03:08:55.039Z,58.39
2023-05-04T03:11:23.943Z,60.01
2023-05-04T03:13:53.803Z,59.68
2023-05-04T03:16:20.680Z,59.60
2023-05-04T03:21:31.513Z,61.50
2023-05-04T03:23:58.161Z,60.49
2023-05-04T03:26:25.492Z,60.97
2023-05-04T03:28:52.080Z,61.42
2023-05-04T03:31:19.105Z,61.07
2023-05-04T03:33:46.045Z,60.53
2023-05-04T03:36:12.579Z,60.21
2023-05-04T03:38:39.564Z,59.15
2023-05-04T03:41:06.419Z,58.20
2023-05-04T03:43:33.234Z,56.71
2023-05-04T03:45:59.930Z,56.34
2023-05-04T03:48:27.926Z,57.22
2023-05-04T03:50:57.087Z,56.47
2023-05-04T03:53:23.643Z,56.18
2023-05-04T03:55:50.232Z,55.50
2023-05-04T03:58:17.083Z,54.88
2023-05-04T04:00:43.988Z,56.83
2023-05-04T04:03:11.087Z,56.13
2023-05-04T04:05:38.178Z,56.58
2023-05-04T04:10:50.053Z,57.18
2023-05-04T04:13:16.752Z,57.80
2023-05-04T04:15:43.504Z,57.91
2023-05-04T04:18:10.375Z,57.19
2023-05-04T04:20:36.960Z,58.93
2023-05-04T04:23:03.844Z,58.88
2023-05-04T04:25:30.409Z,57.94
2023-05-04T04:27:57.311Z,58.25
2023-05-04T04:30:24.757Z,58.63
2023-05-04T04:32:51.316Z,58.95
2023-05-04T04:35:18.712Z,58.17
2023-05-04T04:40:37.181Z,54.80
2023-05-04T04:43:09.833Z,53.33
2023-05-04T04:45:36.683Z,53.31
2023-05-04T04:48:03.538Z,53.62
2023-05-04T04:50:30.117Z,53.24
2023-05-04T04:52:56.713Z,54.62
2023-05-04T04:55:23.700Z,53.94
2023-05-04T04:57:50.341Z,54.60
2023-05-04T05:00:26.506Z,53.60
2023-05-04T05:02:53.993Z,53.71
2023-05-04T05:05:20.646Z,53.39
2023-05-04T05:07:48.708Z,52.05
2023-05-04T05:10:16.326Z,51.43
2023-05-04T05:12:42.975Z,50.18
2023-05-04T05:15:09.899Z,46.29
2023-05-04T05:17:42.570Z,43.78
2023-05-04T05:20:11.300Z,41.51
2023-05-04T05:22:38.858Z,39.43
2023-05-04T05:25:05.688Z,37.92
2023-05-04T05:27:33.578Z,37.71
2023-05-04T05:30:00.438Z,36.42
2023-05-04T05:32:27.142Z,35.23
2023-05-04T05:34:53.977Z,33.11
2023-05-04T05:37:23.049Z,32.68
2023-05-04T05:39:51.924Z,32.66
2023-05-04T05:42:19.560Z,31.24
2023-05-04T05:44:46.168Z,30.12
2023-05-04T05:47:15.768Z,30.42
2023-05-04T05:49:45.447Z,31.04
2023-05-04T05:52:14.564Z,31.31
2023-05-04T05:54:51.497Z,30.23
2023-05-04T05:57:18.299Z,29.45
2023-05-04T05:59:46.731Z,29.79
2023-05-04T06:02:13.836Z,29.04
2023-05-04T06:04:41.760Z,27.85
2023-05-04T06:07:10.235Z,27.67
2023-05-04T06:09:37.110Z,27.34
2023-05-04T06:12:03.992Z,28.36
2023-05-04T06:14:32.801Z,28.33
2023-05-04T06:17:00.265Z,28.86
2023-05-04T06:19:29.046Z,30.25
2023-05-04T06:21:58.562Z,31.28
2023-05-04T06:24:29.900Z,30.12
2023-05-04T06:26:58.434Z,29.49
2023-05-04T06:32:29.806Z,31.08
2023-05-04T06:34:56.842Z,30.70
2023-05-04T06:37:24.537Z,29.63
2023-05-04T06:39:54.352Z,28.95
2023-05-04T06:42:25.580Z,28.40
2023-05-04T06:44:52.390Z,29.09
2023-05-04T06:47:19.252Z,28.25
2023-05-04T06:49:46.376Z,28.08
2023-05-04T06:52:15.410Z,28.06
2023-05-04T06:54:42.947Z,28.60
2023-05-04T06:57:09.837Z,27.65
2023-05-04T06:59:36.714Z,27.70
2023-05-04T07:02:03.506Z,27.51
2023-05-04T07:04:33.772Z,28.15
2023-05-04T07:07:07.964Z,28.20
2023-05-04T07:09:38.601Z,28.46
2023-05-04T07:12:07.593Z,28.47
2023-05-04T07:14:34.546Z,28.75
2023-05-04T07:17:01.158Z,28.18
2023-05-04T07:19:27.737Z,26.99
2023-05-04T07:21:54.328Z,27.46
2023-05-04T07:24:21.846Z,27.75
2023-05-04T07:26:50.179Z,28.39
2023-05-04T07:29:21.049Z,28.43
2023-05-04T07:31:52.631Z,28.98
2023-05-04T07:34:20.145Z,28.98
2023-05-04T07:36:46.999Z,29.87
2023-05-04T07:39:15.944Z,30.19
2023-05-04T07:41:43.252Z,30.40
2023-05-04T07:46:50.451Z,32.33
2023-05-04T07:49:17.822Z,31.84
2023-05-04T07:51:52.000Z,32.47
2023-05-04T07:54:22.039Z,33.35
2023-05-04T07:56:55.478Z,33.45
2023-05-04T07:59:22.181Z,34.50
2023-05-04T08:01:49.883Z,35.25
2023-05-04T08:04:16.999Z,35.55
2023-05-04T08:06:43.933Z,36.15
2023-05-04T08:09:10.848Z,37.04
2023-05-04T08:11:40.684Z,40.00
2023-05-04T08:14:07.718Z,39.45
2023-05-04T08:16:34.776Z,39.84
2023-05-04T08:19:09.099Z,39.50
2023-05-04T08:21:39.228Z,40.22
2023-05-04T08:24:08.507Z,40.96
2023-05-04T08:26:37.058Z,40.98
2023-05-04T08:29:04.154Z,41.10
2023-05-04T08:31:30.925Z,40.81
2023-05-04T08:33:58.100Z,41.55
2023-05-04T08:36:27.788Z,41.04
2023-05-04T08:38:59.138Z,40.68
2023-05-04T08:41:37.230Z,41.65
2023-05-04T08:44:10.738Z,41.30
2023-05-04T08:46:45.753Z,42.57
2023-05-04T08:49:12.486Z,42.87
2023-05-04T08:51:40.294Z,41.93
2023-05-04T08:54:07.219Z,41.96
2023-05-04T08:56:36.161Z,42.53
2023-05-04T08:59:03.700Z,43.09
2023-05-04T09:01:30.683Z,41.43
2023-05-04T09:03:57.729Z,42.15
2023-05-04T09:06:30.727Z,42.80
2023-05-04T09:11:54.927Z,42.83
2023-05-04T09:14:25.371Z,42.50
2023-05-04T09:19:50.187Z,41.86
2023-05-04T09:22:17.352Z,43.18
2023-05-04T09:24:44.501Z,43.12
2023-05-04T09:27:11.425Z,42.58
2023-05-04T09:29:38.007Z,42.62
2023-05-04T09:32:05.513Z,43.32
2023-05-04T09:34:35.282Z,43.57
2023-05-04T09:37:02.208Z,43.25
2023-05-04T09:39:28.987Z,41.40
2023-05-04T09:41:55.817Z,43.17
2023-05-04T09:44:24.770Z,41.53
2023-05-04T09:46:56.620Z,40.86
2023-05-04T09:49:23.969Z,42.18
2023-05-04T09:51:50.767Z,41.15
2023-05-04T09:54:17.885Z,41.34
2023-05-04T09:56:46.918Z,41.70
2023-05-04T09:59:16.245Z,42.00
2023-05-04T10:01:44.936Z,42.28
2023-05-04T10:04:12.402Z,42.21
2023-05-04T10:06:40.019Z,41.73
2023-05-04T10:09:08.058Z,40.60
2023-05-04T10:11:35.004Z,40.76
2023-05-04T10:14:02.209Z,40.87
2023-05-04T10:16:33.254Z,40.82
2023-05-04T10:19:02.747Z,39.87
2023-05-04T10:21:29.741Z,39.48
2023-05-04T10:23:59.014Z,38.83
2023-05-04T10:26:27.930Z,38.63
2023-05-04T10:28:54.899Z,39.68
2023-05-04T10:31:24.243Z,39.18
2023-05-04T10:33:54.584Z,38.95
2023-05-04T10:36:25.995Z,39.85
2023-05-04T10:38:53.532Z,38.70
2023-05-04T10:41:22.096Z,38.35
2023-05-04T10:43:50.419Z,40.54
2023-05-04T10:46:18.846Z,41.33
2023-05-04T10:48:47.075Z,40.17
2023-05-04T10:51:14.075Z,40.39
2023-05-04T10:54:00.464Z,39.99
2023-05-04T10:56:28.877Z,39.59
2023-05-04T11:01:37.898Z,38.59
2023-05-04T11:04:04.451Z,38.43
2023-05-04T11:06:34.880Z,38.47
2023-05-04T11:09:05.854Z,38.34
2023-05-04T11:14:15.482Z,38.90
2023-05-04T11:16:43.858Z,37.70
2023-05-04T11:19:10.671Z,38.06
2023-05-04T11:21:41.252Z,38.24
2023-05-04T11:24:07.977Z,38.43
2023-05-04T11:26:37.482Z,38.38
2023-05-04T11:29:06.572Z,39.16
2023-05-04T11:31:33.313Z,39.01
2023-05-04T11:33:59.981Z,38.10
2023-05-04T11:36:30.372Z,37.25
2023-05-04T11:38:58.328Z,38.58
2023-05-04T11:41:29.305Z,37.33
2023-05-04T11:43:56.219Z,37.44
2023-05-04T11:46:24.165Z,38.13
2023-05-04T11:48:59.303Z,37.19
2023-05-04T11:51:25.900Z,37.02
2023-05-04T11:53:55.002Z,36.75
2023-05-04T11:56:21.591Z,36.68
2023-05-04T11:58:49.058Z,37.19
2023-05-04T12:01:15.672Z,38.05
2023-05-04T12:03:52.223Z,36.54
2023-05-04T12:06:21.411Z,35.10
2023-05-04T12:08:48.291Z,34.70
2023-05-04T12:11:19.362Z,35.41
2023-05-04T12:13:46.055Z,36.68
2023-05-04T12:16:13.661Z,35.49
2023-05-04T12:18:41.281Z,34.87
2023-05-04T12:21:08.888Z,34.33
2023-05-04T12:23:35.872Z,34.19
2023-05-04T12:26:04.605Z,33.77
2023-05-04T12:28:33.473Z,33.86
2023-05-04T12:31:00.319Z,35.16
2023-05-04T12:33:30.371Z,35.71
2023-05-04T12:36:11.820Z,34.65
2023-05-04T12:39:00.107Z,35.18
2023-05-04T12:41:28.935Z,34.18
2023-05-04T12:44:02.691Z,34.09
2023-05-04T12:46:29.768Z,34.55
2023-05-04T12:55:11.853Z,35.39
2023-05-04T12:57:46.327Z,35.34
2023-05-04T13:03:31.839Z,35.37
2023-05-04T13:12:39.355Z,34.92
2023-05-04T13:17:56.457Z,34.50
2023-05-04T13:20:26.309Z,34.19
2023-05-04T13:22:58.629Z,33.79
2023-05-04T13:25:57.945Z,33.99
2023-05-04T13:31:58.822Z,33.68
2023-05-04T13:37:37.432Z,34.12
2023-05-04T13:40:04.431Z,33.62
2023-05-04T13:58:16.796Z,32.41
2023-05-04T14:37:51.439Z,30.50
2023-05-04T15:13:39.558Z,29.66
2023-05-04T15:23:16.499Z,30.38
2023-05-04T15:25:37.284Z,28.06
2023-05-04T15:31:02.528Z,29.35
2023-05-04T15:33:30.078Z,30.19
2023-05-04T15:35:58.357Z,29.23
2023-05-04T15:38:29.089Z,28.84
2023-05-04T15:40:56.552Z,28.42
2023-05-04T15:43:35.474Z,28.65
2023-05-04T15:46:08.697Z,29.50
2023-05-04T15:51:38.487Z,28.80
2023-05-04T15:54:06.823Z,27.99
2023-05-04T15:56:48.717Z,28.52
2023-05-04T15:59:44.333Z,29.02
2023-05-04T16:05:07.791Z,27.80
2023-05-04T16:10:41.942Z,29.14
2023-05-04T16:28:16.685Z,28.23
2023-05-04T16:39:34.880Z,27.87
2023-05-04T16:48:27.512Z,27.88
2023-05-04T17:12:09.083Z,27.81
2023-05-04T17:24:02.126Z,27.72
2023-05-04T17:26:29.533Z,27.54
2023-05-04T17:28:56.443Z,27.02
2023-05-04T17:31:23.879Z,27.12
2023-05-04T17:33:50.885Z,27.48
2023-05-04T17:36:17.811Z,27.34
2023-05-04T17:38:44.288Z,27.29
2023-05-04T17:41:13.716Z,27.48
2023-05-04T17:47:00.591Z,26.91
2023-05-04T17:49:34.049Z,27.24
2023-05-04T17:52:06.722Z,27.67
2023-05-04T17:54:36.814Z,28.03
2023-05-04T17:57:03.447Z,27.77
2023-05-04T17:59:35.865Z,27.84
2023-05-04T18:05:08.822Z,27.80
2023-05-04T18:07:40.411Z,27.75
2023-05-04T18:10:22.494Z,28.57
2023-05-04T18:13:05.026Z,28.68
2023-05-04T18:15:55.220Z,28.63
2023-05-04T18:18:22.555Z,28.67
2023-05-04T18:24:00.459Z,29.59
2023-05-04T18:26:27.349Z,28.84
2023-05-04T18:29:11.129Z,29.12
2023-05-04T18:31:57.704Z,28.57
2023-05-04T18:37:32.722Z,29.05
2023-05-04T18:40:01.744Z,29.03
2023-05-04T18:42:28.299Z,29.26
2023-05-04T18:44:55.230Z,29.11
2023-05-04T18:50:37.307Z,29.88
2023-05-04T18:53:26.742Z,30.11
2023-05-04T18:55:53.452Z,30.00
2023-05-04T18:58:24.074Z,30.43
2023-05-04T19:00:58.325Z,30.93
2023-05-04T19:03:40.098Z,30.57
2023-05-04T19:06:26.509Z,30.75
2023-05-04T19:08:53.101Z,30.94
2023-05-04T19:11:22.915Z,30.94
2023-05-04T19:13:57.002Z,30.79
2023-05-04T19:16:23.897Z,31.17
2023-05-04T19:18:50.434Z,31.02
2023-05-04T19:21:19.162Z,30.65
2023-05-04T19:23:45.767Z,30.46
2023-05-04T19:26:19.697Z,30.06
2023-05-04T19:28:52.004Z,30.14
2023-05-04T19:31:19.580Z,29.97
2023-05-04T19:33:48.848Z,30.48
2023-05-04T19:36:23.251Z,30.58
2023-05-04T19:38:53.580Z,30.21
2023-05-04T19:41:20.400Z,30.07
2023-05-04T19:43:47.230Z,30.67
2023-05-04T19:46:16.111Z,30.12
2023-05-04T19:48:43.428Z,30.40
2023-05-04T19:51:10.229Z,30.66
2023-05-04T19:53:36.818Z,30.43
2023-05-04T19:56:05.182Z,31.38
2023-05-04T19:58:32.123Z,30.91
2023-05-04T20:00:59.123Z,30.52
2023-05-04T20:03:27.115Z,31.53
2023-05-04T20:05:54.504Z,32.76
2023-05-04T20:08:21.069Z,33.99
2023-05-04T20:10:48.034Z,33.63
2023-05-04T20:13:15.405Z,32.55
2023-05-04T20:15:41.872Z,32.15
2023-05-04T20:18:09.093Z,32.49
2023-05-04T20:20:37.609Z,31.77
2023-05-04T20:23:05.487Z,31.57
2023-05-04T20:25:32.074Z,31.29
2023-05-04T20:27:59.341Z,30.73
2023-05-04T20:30:28.084Z,30.69
2023-05-04T20:32:54.717Z,30.93
2023-05-04T20:35:22.066Z,30.51
2023-05-04T20:37:49.413Z,32.72
2023-05-04T20:40:16.260Z,34.47
2023-05-04T20:42:43.098Z,33.79
2023-05-04T20:45:09.667Z,33.58
2023-05-04T20:47:44.158Z,33.64
2023-05-04T20:50:11.274Z,33.24
2023-05-04T20:52:38.051Z,33.82
2023-05-04T20:55:04.989Z,34.17
2023-05-04T20:57:31.846Z,33.81
2023-05-04T20:59:58.366Z,34.43
2023-05-04T21:02:26.343Z,33.85
2023-05-04T21:05:00.373Z,33.51
2023-05-04T21:07:28.309Z,33.19
2023-05-04T21:09:55.570Z,33.92
2023-05-04T21:12:22.830Z,34.97
2023-05-04T21:14:52.087Z,35.06
2023-05-04T21:17:26.217Z,34.82
2023-05-04T21:19:53.071Z,35.43
2023-05-04T21:22:19.609Z,34.97
2023-05-04T21:24:46.414Z,34.72
2023-05-04T21:27:12.944Z,34.42
2023-05-04T21:29:40.094Z,35.27
2023-05-04T21:32:06.590Z,34.67
2023-05-04T21:34:33.741Z,34.19
2023-05-04T21:37:03.415Z,33.74
2023-05-04T21:39:30.255Z,34.66
2023-05-04T21:41:57.609Z,34.72
2023-05-04T21:44:24.492Z,34.21
2023-05-04T21:46:51.318Z,33.67
2023-05-04T21:49:18.609Z,34.24
2023-05-04T21:51:45.868Z,34.67
2023-05-04T21:54:12.436Z,34.78
2023-05-04T21:56:39.142Z,34.73
2023-05-04T21:59:13.143Z,34.48
2023-05-04T22:01:40.025Z,34.24
2023-05-04T22:04:08.822Z,34.18
2023-05-04T22:06:35.727Z,35.03
2023-05-04T22:09:09.931Z,35.51
2023-05-04T22:11:36.720Z,34.60
2023-05-04T22:14:03.391Z,34.43
2023-05-04T22:16:30.046Z,34.15
2023-05-04T22:18:56.892Z,33.55
2023-05-04T22:21:23.977Z,34.51
2023-05-04T22:23:57.951Z,35.04
2023-05-04T22:26:24.517Z,35.23
2023-05-04T22:28:52.901Z,35.34
2023-05-04T22:31:19.506Z,36.41
2023-05-04T22:33:53.629Z,36.85
2023-05-04T22:36:20.919Z,36.43
2023-05-04T22:38:48.712Z,36.66
2023-05-04T22:41:22.716Z,36.29
2023-05-04T22:43:49.292Z,35.77
2023-05-04T22:48:44.587Z,37.75
2023-05-04T22:51:11.175Z,37.33
2023-05-04T22:53:38.092Z,37.34
2023-05-04T22:56:04.564Z,37.91
2023-05-04T22:58:31.034Z,37.52
2023-05-04T23:00:58.342Z,37.68
2023-05-04T23:03:25.958Z,37.60
2023-05-04T23:06:00.206Z,37.66
2023-05-04T23:08:27.036Z,37.55
2023-05-04T23:10:53.580Z,38.71
2023-05-04T23:13:20.070Z,38.03
2023-05-04T23:16:02.031Z,37.10
2023-05-04T23:18:36.009Z,37.39
2023-05-04T23:21:05.030Z,38.07
2023-05-04T23:23:31.965Z,38.57
2023-05-04T23:25:58.994Z,38.06
2023-05-04T23:28:25.891Z,37.89
2023-05-04T23:30:53.480Z,37.13
2023-05-04T23:33:20.107Z,36.89
2023-05-04T23:35:46.768Z,36.18
2023-05-04T23:38:13.786Z,36.00
2023-05-04T23:40:40.399Z,36.26
2023-05-04T23:43:06.961Z,36.03
2023-05-04T23:45:33.587Z,35.62
2023-05-04T23:48:09.098Z,35.05
2023-05-04T23:50:37.516Z,35.30
2023-05-04T23:53:04.154Z,35.43
2023-05-04T23:55:30.699Z,35.70
2023-05-04T23:57:58.105Z,35.75
